createdAt,value
2023-04-11T00:01:08.326Z,4.99
2023-04-11T00:03:39.830Z,4.95
2023-04-11T00:06:09.249Z,4.96
2023-04-11T00:08:37.579Z,4.95
2023-04-11T00:11:06.081Z,4.94
2023-04-11T00:13:37.527Z,4.93
2023-04-11T00:16:09.108Z,4.89
2023-04-11T00:18:39.818Z,4.85
2023-04-11T00:21:10.948Z,4.80
2023-04-11T00:23:40.479Z,4.87
2023-04-11T00:26:09.721Z,4.83
2023-04-11T00:28:39.745Z,4.77
2023-04-11T00:31:08.953Z,4.73
2023-04-11T00:33:39.258Z,4.76
2023-04-11T00:36:11.845Z,4.77
2023-04-11T00:38:40.386Z,4.76
2023-04-11T00:41:09.361Z,4.76
2023-04-11T00:43:42.407Z,4.80
2023-04-11T00:46:11.121Z,4.79
2023-04-11T00:48:40.265Z,4.78
2023-04-11T00:51:09.377Z,4.81
2023-04-11T00:53:39.438Z,4.82
2023-04-11T00:56:08.668Z,4.82
2023-04-11T00:58:38.303Z,4.78
2023-04-11T01:01:10.842Z,4.81
2023-04-11T01:03:41.868Z,4.78
2023-04-11T01:06:14.089Z,4.78
2023-04-11T01:08:45.045Z,4.76
2023-04-11T01:11:16.510Z,4.77
2023-04-11T01:13:45.112Z,4.76
2023-04-11T01:16:15.904Z,4.79
2023-04-11T01:18:44.711Z,4.80
2023-04-11T01:21:13.458Z,4.77
2023-04-11T01:23:43.493Z,4.77
2023-04-11T01:26:12.607Z,4.79
2023-04-11T01:28:40.930Z,4.86
2023-04-11T01:31:10.501Z,4.89
2023-04-11T01:33:39.764Z,4.87
2023-04-11T01:36:09.608Z,4.88
2023-04-11T01:38:38.222Z,4.88
2023-04-11T01:41:09.869Z,4.92
2023-04-11T01:43:38.606Z,4.89
2023-04-11T01:46:07.940Z,4.92
2023-04-11T01:48:36.371Z,4.90
2023-04-11T01:51:08.986Z,4.87
2023-04-11T01:53:37.513Z,4.84
2023-04-11T01:56:08.848Z,4.84
2023-04-11T01:58:38.129Z,4.87
2023-04-11T02:01:07.121Z,4.86
2023-04-11T02:03:37.112Z,4.89
2023-04-11T02:06:07.120Z,4.84
2023-04-11T02:08:35.920Z,4.90
2023-04-11T02:11:05.700Z,4.89
2023-04-11T02:13:37.253Z,4.85
2023-04-11T02:16:11.873Z,4.88
2023-04-11T02:18:41.309Z,4.84
2023-04-11T02:21:11.250Z,4.88
2023-04-11T02:23:39.635Z,4.90
2023-04-11T02:26:08.213Z,4.90
2023-04-11T02:28:42.691Z,4.88
2023-04-11T02:31:11.509Z,4.93
2023-04-11T02:33:42.921Z,4.97
2023-04-11T02:36:12.889Z,4.98
2023-04-11T02:38:41.428Z,5.02
2023-04-11T02:41:10.104Z,5.05
2023-04-11T02:43:40.014Z,5.07
2023-04-11T02:46:12.675Z,5.13
2023-04-11T02:48:42.332Z,5.11
2023-04-11T02:51:10.943Z,5.07
2023-04-11T02:53:39.851Z,5.09
2023-04-11T02:56:11.183Z,5.10
2023-04-11T02:58:43.524Z,5.11
2023-04-11T03:01:12.918Z,5.08
2023-04-11T03:03:41.900Z,5.01
2023-04-11T03:06:10.912Z,5.00
2023-04-11T03:08:39.474Z,4.96
2023-04-11T03:11:08.211Z,5.00
2023-04-11T03:13:37.906Z,5.06
2023-04-11T03:16:09.301Z,4.99
2023-04-11T03:18:38.112Z,5.02
2023-04-11T03:21:08.497Z,5.00
2023-04-11T03:23:37.194Z,5.03
2023-04-11T03:26:06.487Z,4.93
2023-04-11T03:28:35.235Z,4.90
2023-04-11T03:31:03.702Z,4.91
2023-04-11T03:33:33.776Z,4.86
2023-04-11T03:36:02.468Z,4.86
2023-04-11T03:38:31.297Z,4.84
2023-04-11T03:41:00.147Z,4.79
2023-04-11T03:43:28.837Z,4.80
2023-04-11T03:45:57.638Z,4.79
2023-04-11T03:48:29.829Z,4.81
2023-04-11T03:51:01.154Z,4.80
2023-04-11T03:53:30.258Z,4.92
2023-04-11T03:55:58.806Z,4.82
2023-04-11T03:58:27.249Z,4.76
2023-04-11T04:00:56.191Z,4.76
2023-04-11T04:03:25.156Z,4.75
2023-04-11T04:05:54.293Z,4.68
2023-04-11T04:08:24.306Z,4.68
2023-04-11T04:10:52.861Z,4.67
2023-04-11T04:13:21.152Z,4.64
2023-04-11T04:15:51.827Z,4.61
2023-04-11T04:18:23.098Z,4.60
2023-04-11T04:20:52.285Z,4.57
2023-04-11T04:23:20.848Z,4.64
2023-04-11T04:25:52.562Z,4.63
2023-04-11T04:28:22.901Z,4.66
2023-04-11T04:30:54.593Z,4.65
2023-04-11T04:33:23.322Z,4.65
2023-04-11T04:35:58.379Z,4.69
2023-04-11T04:38:29.127Z,4.73
2023-04-11T04:40:59.155Z,4.74
2023-04-11T04:43:27.519Z,4.73
2023-04-11T04:45:56.184Z,4.74
2023-04-11T04:48:26.024Z,4.79
2023-04-11T04:50:54.623Z,4.78
2023-04-11T04:53:23.525Z,4.76
2023-04-11T04:55:52.088Z,4.80
2023-04-11T04:58:22.378Z,4.85
2023-04-11T05:00:56.181Z,4.87
2023-04-11T05:03:26.356Z,4.83
2023-04-11T05:05:56.990Z,4.89
2023-04-11T05:08:26.310Z,4.87
2023-04-11T05:10:54.536Z,4.89
2023-04-11T05:13:25.129Z,4.92
2023-04-11T05:15:54.636Z,4.95
2023-04-11T05:18:23.549Z,4.98
2023-04-11T05:20:52.025Z,4.93
2023-04-11T05:23:20.568Z,4.95
2023-04-11T05:25:49.330Z,5.00
2023-04-11T05:28:22.820Z,4.93
2023-04-11T05:30:55.305Z,4.93
2023-04-11T05:33:25.323Z,4.93
2023-04-11T05:35:53.877Z,5.03
2023-04-11T05:38:23.565Z,5.02
2023-04-11T05:40:52.168Z,5.06
2023-04-11T05:43:20.869Z,5.11
2023-04-11T05:45:49.774Z,5.03
2023-04-11T05:48:20.383Z,5.06
2023-04-11T05:50:48.744Z,5.03
2023-04-11T05:53:17.534Z,5.00
2023-04-11T05:55:46.224Z,4.99
2023-04-11T05:58:15.036Z,4.95
2023-04-11T06:00:43.854Z,4.95
2023-04-11T06:03:13.556Z,4.95
2023-04-11T06:05:46.462Z,4.99
2023-04-11T06:08:15.165Z,4.97
2023-04-11T06:10:43.817Z,4.97
2023-04-11T06:13:14.062Z,4.95
2023-04-11T06:15:43.631Z,4.95
2023-04-11T06:18:13.278Z,4.93
2023-04-11T06:20:41.774Z,4.89
2023-04-11T06:23:12.708Z,4.84
2023-04-11T06:25:42.588Z,4.78
2023-04-11T06:28:11.292Z,4.76
2023-04-11T06:30:39.782Z,4.77
2023-04-11T06:33:08.341Z,4.79
2023-04-11T06:35:37.369Z,4.82
2023-04-11T06:38:06.192Z,4.86
2023-04-11T06:40:36.639Z,4.94
2023-04-11T06:43:05.224Z,5.03
2023-04-11T06:45:33.890Z,5.09
2023-04-11T06:48:03.590Z,5.20
2023-04-11T06:50:32.100Z,5.26
2023-04-11T06:53:00.454Z,5.31
2023-04-11T06:55:28.794Z,5.38
2023-04-11T06:57:58.797Z,5.44
2023-04-11T07:00:27.681Z,5.54
2023-04-11T07:02:56.213Z,5.60
2023-04-11T07:05:24.948Z,5.72
2023-04-11T07:07:54.698Z,5.74
2023-04-11T07:10:25.035Z,5.81
2023-04-11T07:12:53.646Z,5.91
2023-04-11T07:15:24.262Z,5.99
2023-04-11T07:17:52.993Z,6.07
2023-04-11T07:20:21.797Z,6.14
2023-04-11T07:22:50.596Z,6.23
2023-04-11T07:25:22.893Z,6.27
2023-04-11T07:27:52.154Z,6.34
2023-04-11T07:30:20.781Z,6.41
2023-04-11T07:32:50.693Z,6.47
2023-04-11T07:35:19.279Z,6.60
2023-04-11T07:37:47.740Z,6.67
2023-04-11T07:40:16.158Z,6.75
2023-04-11T07:42:46.498Z,6.86
2023-04-11T07:45:15.060Z,6.98
2023-04-11T07:47:43.534Z,7.06
2023-04-11T07:50:13.555Z,7.18
2023-04-11T07:52:41.815Z,7.18
2023-04-11T07:55:10.999Z,7.26
2023-04-11T07:57:39.330Z,7.34
2023-04-11T08:00:11.599Z,7.38
2023-04-11T08:02:40.352Z,7.48
2023-04-11T08:05:10.214Z,7.55
2023-04-11T08:07:40.053Z,7.62
2023-04-11T08:10:09.690Z,7.71
2023-04-11T08:12:37.973Z,7.79
2023-04-11T08:15:07.248Z,7.83
2023-04-11T08:17:38.584Z,7.85
2023-04-11T08:20:13.493Z,7.88
2023-04-11T08:22:47.046Z,7.90
2023-04-11T08:25:21.964Z,7.97
2023-04-11T08:27:51.211Z,8.05
2023-04-11T08:30:25.991Z,8.03
2023-04-11T08:32:56.878Z,8.06
2023-04-11T08:35:25.539Z,8.20
2023-04-11T08:37:55.651Z,8.55
2023-04-11T08:40:25.198Z,8.61
2023-04-11T08:43:00.852Z,8.71
2023-04-11T08:45:30.430Z,8.62
2023-04-11T08:47:58.824Z,8.64
2023-04-11T08:50:27.345Z,8.66
2023-04-11T08:52:58.957Z,8.65
2023-04-11T08:55:27.272Z,8.59
2023-04-11T08:57:59.373Z,8.58
2023-04-11T09:00:29.303Z,8.54
2023-04-11T09:02:59.255Z,8.60
2023-04-11T09:05:32.044Z,8.57
2023-04-11T09:08:03.525Z,8.62
2023-04-11T09:10:32.048Z,8.67
2023-04-11T09:13:00.885Z,8.78
2023-04-11T09:15:31.828Z,8.83
2023-04-11T09:18:01.097Z,8.89
2023-04-11T09:20:31.286Z,8.89
2023-04-11T09:23:01.640Z,8.90
2023-04-11T09:25:30.050Z,8.89
2023-04-11T09:28:12.075Z,8.81
2023-04-11T09:30:40.416Z,8.83
2023-04-11T09:33:23.228Z,8.92
2023-04-11T09:35:53.702Z,8.87
2023-04-11T09:38:34.061Z,8.89
2023-04-11T09:41:03.241Z,8.89
2023-04-11T09:43:50.255Z,8.94
2023-04-11T09:46:20.905Z,8.96
2023-04-11T09:48:50.307Z,9.11
2023-04-11T09:53:53.288Z,9.11
2023-04-11T09:56:32.484Z,9.14
2023-04-11T09:59:08.852Z,9.12
2023-04-11T10:01:38.605Z,9.14
2023-04-11T10:04:12.703Z,9.16
2023-04-11T10:06:49.556Z,9.22
2023-04-11T10:09:20.152Z,9.24
2023-04-11T10:11:48.608Z,9.33
2023-04-11T10:14:50.202Z,9.39
2023-04-11T10:17:24.545Z,9.48
2023-04-11T10:19:57.396Z,9.55
2023-04-11T10:23:00.257Z,9.53
2023-04-11T10:25:36.813Z,9.58
2023-04-11T10:28:05.779Z,9.47
2023-04-11T10:31:04.637Z,9.41
2023-04-11T10:33:35.378Z,9.35
2023-04-11T10:36:12.709Z,9.31
2023-04-11T10:38:49.047Z,9.22
2023-04-11T10:41:32.670Z,9.15
2023-04-11T10:44:21.305Z,9.11
2023-04-11T10:46:53.994Z,9.05
2023-04-11T10:49:39.475Z,9.06
2023-04-11T10:52:23.409Z,9.11
2023-04-11T10:54:53.290Z,9.17
2023-04-11T10:57:24.233Z,9.21
2023-04-11T10:59:59.894Z,9.27
2023-04-11T11:02:39.505Z,9.31
2023-04-11T11:05:19.487Z,9.13
2023-04-11T11:07:54.201Z,9.17
2023-04-11T11:10:40.003Z,9.20
2023-04-11T11:13:10.770Z,9.19
2023-04-11T11:15:40.570Z,9.19
2023-04-11T11:18:11.200Z,9.12
2023-04-11T11:20:39.647Z,9.14
2023-04-11T11:23:09.808Z,9.15
2023-04-11T11:25:38.778Z,9.12
2023-04-11T11:28:10.365Z,9.09
2023-04-11T11:30:39.376Z,9.08
2023-04-11T11:33:19.358Z,9.05
2023-04-11T11:35:55.812Z,9.00
2023-04-11T11:38:27.274Z,9.04
2023-04-11T11:40:56.921Z,9.12
2023-04-11T11:43:28.061Z,9.18
2023-04-11T11:46:10.978Z,9.29
2023-04-11T11:48:39.486Z,9.37
2023-04-11T11:51:08.117Z,9.39
2023-04-11T11:53:36.888Z,9.30
2023-04-11T11:56:15.692Z,9.31
2023-04-11T11:58:46.413Z,9.36
2023-04-11T12:01:19.018Z,9.41
2023-04-11T12:03:51.658Z,9.49
2023-04-11T12:06:20.798Z,9.52
2023-04-11T12:08:54.059Z,9.55
2023-04-11T12:11:22.772Z,9.58
2023-04-11T12:13:55.752Z,9.65
2023-04-11T12:16:25.914Z,9.70
2023-04-11T12:18:54.192Z,9.74
2023-04-11T12:21:22.660Z,9.80
2023-04-11T12:23:50.975Z,9.79
2023-04-11T12:26:21.109Z,9.86
2023-04-11T12:28:50.266Z,9.94
2023-04-11T12:31:24.002Z,9.97
2023-04-11T12:34:18.844Z,10.00
2023-04-11T12:37:11.677Z,10.06
2023-04-11T12:39:48.649Z,9.90
2023-04-11T12:42:26.701Z,9.86
2023-04-11T12:45:02.141Z,9.86
2023-04-11T12:47:32.576Z,9.84
2023-04-11T12:50:01.195Z,9.84
2023-04-11T12:52:29.984Z,9.85
2023-04-11T12:54:58.812Z,9.89
2023-04-11T12:57:28.347Z,9.84
2023-04-11T12:59:56.712Z,9.85
2023-04-11T13:02:25.320Z,9.83
2023-04-11T13:04:55.377Z,9.84
2023-04-11T13:07:24.486Z,9.80
2023-04-11T13:09:52.780Z,9.86
2023-04-11T13:12:21.742Z,9.84
2023-04-11T13:14:50.078Z,9.85
2023-04-11T13:17:18.357Z,9.78
2023-04-11T13:19:46.596Z,9.86
2023-04-11T13:22:16.209Z,9.78
2023-04-11T13:24:44.556Z,9.73
2023-04-11T13:27:12.924Z,9.80
2023-04-11T13:29:41.621Z,9.85
2023-04-11T13:32:09.996Z,9.83
2023-04-11T13:34:38.710Z,9.87
2023-04-11T13:37:06.937Z,9.89
2023-04-11T13:39:36.627Z,9.86
2023-04-11T13:42:05.286Z,10.05
2023-04-11T13:44:36.861Z,10.20
2023-04-11T13:47:05.699Z,10.31
2023-04-11T13:49:35.062Z,10.38
2023-04-11T13:52:03.828Z,10.63
2023-04-11T13:54:32.116Z,10.61
2023-04-11T13:57:07.119Z,10.43
2023-04-11T13:59:35.493Z,10.31
2023-04-11T14:02:04.075Z,10.18
2023-04-11T14:04:32.617Z,10.15
2023-04-11T14:07:01.068Z,10.07
2023-04-11T14:09:29.432Z,10.03
2023-04-11T14:11:58.428Z,9.98
2023-04-11T14:14:28.247Z,9.92
2023-04-11T14:16:57.128Z,9.81
2023-04-11T14:19:26.631Z,9.72
2023-04-11T14:21:55.042Z,9.70
2023-04-11T14:24:23.355Z,9.72
2023-04-11T14:26:51.671Z,9.78
2023-04-11T14:29:21.082Z,9.66
2023-04-11T14:31:53.299Z,9.65
2023-04-11T14:34:21.913Z,9.65
2023-04-11T14:36:50.514Z,9.61
2023-04-11T14:39:19.853Z,9.66
2023-04-11T14:41:49.168Z,9.65
2023-04-11T14:44:18.168Z,9.69
2023-04-11T14:46:46.992Z,9.71
2023-04-11T14:49:16.923Z,9.84
2023-04-11T14:51:45.195Z,9.84
2023-04-11T14:54:13.559Z,9.92
2023-04-11T14:56:42.034Z,9.97
2023-04-11T14:59:11.665Z,9.96
2023-04-11T15:01:47.966Z,9.86
2023-04-11T15:04:17.960Z,9.91
2023-04-11T15:06:46.736Z,9.77
2023-04-11T15:09:19.915Z,9.76
2023-04-11T15:11:49.009Z,9.73
2023-04-11T15:14:17.505Z,9.73
2023-04-11T15:16:46.071Z,9.72
2023-04-11T15:19:14.317Z,9.80
2023-04-11T15:21:46.315Z,9.78
2023-04-11T15:24:15.004Z,9.77
2023-04-11T15:26:45.250Z,9.74
2023-04-11T15:29:16.186Z,9.70
2023-04-11T15:31:44.789Z,9.72
2023-04-11T15:34:14.195Z,9.64
2023-04-11T15:36:45.578Z,9.58
2023-04-11T15:39:14.449Z,9.48
2023-04-11T15:41:42.925Z,9.45
2023-04-11T15:44:12.279Z,9.38
2023-04-11T15:46:41.117Z,9.43
2023-04-11T15:49:09.403Z,9.35
2023-04-11T15:51:38.389Z,9.15
2023-04-11T15:54:09.279Z,9.08
2023-04-11T15:56:37.921Z,9.00
2023-04-11T15:59:08.142Z,8.93
2023-04-11T16:01:37.140Z,8.85
2023-04-11T16:04:05.987Z,8.88
2023-04-11T16:06:34.363Z,8.85
2023-04-11T16:09:02.746Z,8.78
2023-04-11T16:11:33.620Z,8.77
2023-04-11T16:14:02.066Z,8.72
2023-04-11T16:16:30.836Z,8.69
2023-04-11T16:19:01.242Z,8.68
2023-04-11T16:21:29.959Z,8.63
2023-04-11T16:23:58.894Z,8.63
2023-04-11T16:26:27.755Z,8.64
2023-04-11T16:28:58.043Z,8.56
2023-04-11T16:31:26.628Z,8.56
2023-04-11T16:33:55.554Z,8.52
2023-04-11T16:36:24.611Z,8.54
2023-04-11T16:38:55.303Z,8.49
2023-04-11T16:41:24.341Z,8.54
2023-04-11T16:43:52.994Z,8.57
2023-04-11T16:46:23.119Z,8.55
2023-04-11T16:48:51.657Z,8.57
2023-04-11T16:51:21.544Z,8.55
2023-04-11T16:53:53.492Z,8.49
2023-04-11T16:56:22.188Z,8.38
2023-04-11T16:58:51.058Z,8.26
2023-04-11T17:01:19.622Z,8.16
2023-04-11T17:03:52.477Z,8.01
2023-04-11T17:06:21.107Z,7.53
2023-04-11T17:08:49.891Z,6.71
2023-04-11T17:11:18.553Z,6.52
2023-04-11T17:13:48.964Z,6.28
2023-04-11T17:16:18.419Z,6.22
2023-04-11T17:18:48.661Z,5.83
2023-04-11T17:21:18.174Z,5.71
2023-04-11T17:23:48.377Z,5.57
2023-04-11T17:26:17.858Z,5.42
2023-04-11T17:28:47.148Z,5.31
2023-04-11T17:31:17.813Z,5.28
2023-04-11T17:33:46.658Z,5.17
2023-04-11T17:36:16.926Z,5.08
2023-04-11T17:38:46.157Z,5.04
2023-04-11T17:41:15.824Z,5.04
2023-04-11T17:43:44.985Z,5.00
2023-04-11T17:46:14.128Z,4.92
2023-04-11T17:48:43.952Z,4.92
2023-04-11T17:51:12.567Z,4.94
2023-04-11T17:53:42.525Z,4.95
2023-04-11T17:56:12.678Z,4.93
2023-04-11T17:58:45.058Z,4.86
2023-04-11T18:01:13.699Z,4.86
2023-04-11T18:03:42.338Z,4.83
2023-04-11T18:06:11.427Z,4.80
2023-04-11T18:08:50.381Z,4.75
2023-04-11T18:11:21.873Z,4.83
2023-04-11T18:13:50.777Z,4.83
2023-04-11T18:16:19.639Z,4.87
2023-04-11T18:18:49.153Z,4.83
2023-04-11T18:21:17.808Z,4.83
2023-04-11T18:23:46.571Z,4.89
2023-04-11T18:26:15.137Z,4.85
2023-04-11T18:28:45.125Z,4.88
2023-04-11T18:31:14.999Z,4.91
2023-04-11T18:33:46.010Z,5.02
2023-04-11T18:36:14.967Z,5.00
2023-04-11T18:38:44.266Z,4.98
2023-04-11T18:41:12.868Z,4.98
2023-04-11T18:43:41.652Z,5.01
2023-04-11T18:46:11.656Z,5.01
2023-04-11T18:48:41.567Z,4.95
2023-04-11T18:51:10.051Z,4.92
2023-04-11T18:53:39.855Z,4.92
2023-04-11T18:56:10.118Z,4.91
2023-04-11T18:58:45.614Z,4.91
2023-04-11T19:01:17.489Z,4.88
2023-04-11T19:03:46.938Z,4.87
2023-04-11T19:06:17.264Z,4.89
2023-04-11T19:08:46.423Z,4.87
2023-04-11T19:11:16.153Z,4.85
2023-04-11T19:13:44.726Z,4.84
2023-04-11T19:16:13.600Z,4.81
2023-04-11T19:18:43.390Z,4.80
2023-04-11T19:21:12.186Z,4.83
2023-04-11T19:23:40.635Z,4.90
2023-04-11T19:26:09.688Z,4.91
2023-04-11T19:28:38.437Z,4.83
2023-04-11T19:31:07.222Z,4.69
2023-04-11T19:33:39.111Z,4.61
2023-04-11T19:36:09.583Z,4.60
2023-04-11T19:38:39.750Z,4.62
2023-04-11T19:41:12.784Z,4.53
2023-04-11T19:43:42.849Z,4.48
2023-04-11T19:46:12.903Z,4.42
2023-04-11T19:48:42.887Z,4.40
2023-04-11T19:51:14.268Z,4.34
2023-04-11T19:53:42.822Z,4.30
2023-04-11T19:56:11.219Z,4.26
2023-04-11T19:58:40.055Z,4.25
2023-04-11T20:01:09.933Z,4.26
2023-04-11T20:03:38.427Z,4.29
2023-04-11T20:06:07.677Z,4.28
2023-04-11T20:08:38.285Z,4.24
2023-04-11T20:11:07.348Z,4.25
2023-04-11T20:13:36.678Z,4.21
2023-04-11T20:16:09.077Z,4.26
2023-04-11T20:18:37.393Z,4.36
2023-04-11T20:21:07.830Z,4.45
2023-04-11T20:23:39.402Z,4.45
2023-04-11T20:26:07.681Z,4.48
2023-04-11T20:28:36.691Z,4.44
2023-04-11T20:31:05.331Z,4.43
2023-04-11T20:33:33.686Z,4.41
2023-04-11T20:36:03.611Z,4.36
2023-04-11T20:38:32.566Z,4.37
2023-04-11T20:41:06.298Z,4.40
2023-04-11T20:43:37.785Z,4.40
2023-04-11T20:46:08.660Z,4.38
2023-04-11T20:48:37.771Z,4.40
2023-04-11T20:51:08.297Z,4.39
2023-04-11T20:53:39.551Z,4.35
2023-04-11T20:56:12.463Z,4.28
2023-04-11T20:58:40.905Z,4.27
2023-04-11T21:01:09.197Z,4.28
2023-04-11T21:03:38.839Z,4.32
2023-04-11T21:06:07.837Z,4.29
2023-04-11T21:08:37.616Z,4.20
2023-04-11T21:11:07.533Z,4.24
2023-04-11T21:13:37.789Z,4.13
2023-04-11T21:16:06.564Z,4.07
2023-04-11T21:18:35.154Z,4.06
2023-04-11T21:21:07.887Z,3.95
2023-04-11T21:23:36.609Z,3.82
2023-04-11T21:26:05.410Z,3.76
2023-04-11T21:28:34.028Z,3.70
2023-04-11T21:31:04.154Z,3.63
2023-04-11T21:33:32.756Z,3.55
2023-04-11T21:36:01.984Z,3.56
2023-04-11T21:38:31.007Z,3.54
2023-04-11T21:40:59.746Z,3.47
2023-04-11T21:43:29.047Z,3.45
2023-04-11T21:45:57.630Z,3.41
2023-04-11T21:48:27.812Z,3.42
2023-04-11T21:50:56.454Z,3.36
2023-04-11T21:53:26.975Z,3.29
2023-04-11T21:55:55.465Z,3.31
2023-04-11T21:58:29.617Z,3.28
2023-04-11T22:00:58.626Z,3.19
2023-04-11T22:03:31.070Z,3.21
2023-04-11T22:06:00.283Z,3.27
2023-04-11T22:08:29.998Z,3.16
2023-04-11T22:10:58.310Z,3.14
2023-04-11T22:13:26.655Z,3.18
2023-04-11T22:15:58.810Z,3.13
2023-04-11T22:18:29.047Z,3.04
2023-04-11T22:20:57.788Z,2.97
2023-04-11T22:23:26.494Z,2.95
2023-04-11T22:25:59.448Z,2.99
2023-04-11T22:28:28.310Z,2.94
2023-04-11T22:30:58.118Z,2.92
2023-04-11T22:33:26.895Z,2.97
2023-04-11T22:35:58.824Z,2.93
2023-04-11T22:38:27.900Z,2.96
2023-04-11T22:40:56.600Z,2.92
2023-04-11T22:43:25.156Z,2.99
2023-04-11T22:45:54.346Z,2.97
2023-04-11T22:48:30.069Z,2.98
2023-04-11T22:51:00.419Z,2.93
2023-04-11T22:53:29.079Z,2.93
2023-04-11T22:55:57.883Z,2.93
2023-04-11T22:58:26.345Z,2.93
2023-04-11T23:00:55.911Z,2.95
2023-04-11T23:03:24.913Z,2.89
2023-04-11T23:05:53.553Z,2.97
2023-04-11T23:08:23.391Z,2.97
2023-04-11T23:10:51.800Z,2.98
2023-04-11T23:13:20.736Z,2.99
2023-04-11T23:15:49.287Z,2.98
2023-04-11T23:18:19.034Z,2.97
2023-04-11T23:20:48.964Z,2.97
2023-04-11T23:23:17.917Z,2.96
2023-04-11T23:25:47.851Z,2.93
2023-04-11T23:28:16.545Z,2.93
2023-04-11T23:30:46.263Z,2.90
2023-04-11T23:33:15.402Z,2.90
2023-04-11T23:35:44.149Z,2.88
2023-04-11T23:38:12.804Z,2.83
2023-04-11T23:40:41.386Z,2.80
2023-04-11T23:43:12.101Z,2.82
2023-04-11T23:45:40.968Z,2.79
2023-04-11T23:48:09.547Z,2.82
2023-04-11T23:50:38.130Z,2.80
2023-04-11T23:53:06.940Z,2.76
2023-04-11T23:55:35.999Z,2.83
2023-04-11T23:58:04.933Z,2.82
